sensor_id;sensor_type;location;lat;lon;timestamp;temperature;humidity
45906;DHT22;31619;49.008;12.106;2023-02-03T00:02:11;2.00;99.90
45906;DHT22;31619;49.008;12.106;2023-02-03T00:04:37;1.90;99.90
45906;DHT22;31619;49.008;12.106;2023-02-03T00:07:02;2.00;99.90
45906;DHT22;31619;49.008;12.106;2023-02-03T00:09:28;2.10;99.90
45906;DHT22;31619;49.008;12.106;2023-02-03T00:11:54;2.10;99.90
45906;DHT22;31619;49.008;12.106;2023-02-03T00:14:19;2.00;99.90
45906;DHT22;31619;49.008;12.106;2023-02-03T00:16:45;2.00;99.90
45906;DHT22;31619;49.008;12.106;2023-02-03T00:19:11;2.00;99.90
45906;DHT22;31619;49.008;12.106;2023-02-03T00:21:36;2.10;99.90
45906;DHT22;31619;49.008;12.106;2023-02-03T00:24:02;2.10;99.90
45906;DHT22;31619;49.008;12.106;2023-02-03T00:26:27;2.20;99.90
45906;DHT22;31619;49.008;12.106;2023-02-03T00:28:53;2.10;99.90
45906;DHT22;31619;49.008;12.106;2023-02-03T00:31:21;2.20;99.90
45906;DHT22;31619;49.008;12.106;2023-02-03T00:33:53;2.10;99.90
45906;DHT22;31619;49.008;12.106;2023-02-03T00:36:19;2.10;99.90
45906;DHT22;31619;49.008;12.106;2023-02-03T00:38:44;2.10;99.90
45906;DHT22;31619;49.008;12.106;2023-02-03T00:41:10;2.10;99.90
45906;DHT22;31619;49.008;12.106;2023-02-03T00:43:36;2.10;99.90
45906;DHT22;31619;49.008;12.106;2023-02-03T00:46:01;2.20;99.90
45906;DHT22;31619;49.008;12.106;2023-02-03T00:48:27;2.40;99.90
45906;DHT22;31619;49.008;12.106;2023-02-03T00:50:52;2.60;99.90
45906;DHT22;31619;49.008;12.106;2023-02-03T00:53:18;2.70;99.90
45906;DHT22;31619;49.008;12.106;2023-02-03T00:55:43;2.90;99.90
45906;DHT22;31619;49.008;12.106;2023-02-03T00:58:09;3.10;99.90
45906;DHT22;31619;49.008;12.106;2023-02-03T01:00:35;3.30;99.90
45906;DHT22;31619;49.008;12.106;2023-02-03T01:03:00;3.40;99.90
45906;DHT22;31619;49.008;12.106;2023-02-03T01:05:26;3.40;99.90
45906;DHT22;31619;49.008;12.106;2023-02-03T01:07:51;3.40;99.90
45906;DHT22;31619;49.008;12.106;2023-02-03T01:10:17;3.50;99.90
45906;DHT22;31619;49.008;12.106;2023-02-03T01:12:43;3.60;99.90
45906;DHT22;31619;49.008;12.106;2023-02-03T01:15:08;3.60;99.90
45906;DHT22;31619;49.008;12.106;2023-02-03T01:17:34;3.70;99.90
45906;DHT22;31619;49.008;12.106;2023-02-03T01:20:00;3.70;99.90
45906;DHT22;31619;49.008;12.106;2023-02-03T01:22:27;3.70;99.90
45906;DHT22;31619;49.008;12.106;2023-02-03T01:24:53;3.70;99.90
45906;DHT22;31619;49.008;12.106;2023-02-03T01:27:19;3.80;99.90
45906;DHT22;31619;49.008;12.106;2023-02-03T01:29:44;3.80;99.90
45906;DHT22;31619;49.008;12.106;2023-02-03T01:32:10;3.70;99.90
45906;DHT22;31619;49.008;12.106;2023-02-03T01:34:35;3.70;99.90
45906;DHT22;31619;49.008;12.106;2023-02-03T01:37:01;3.80;99.90
45906;DHT22;31619;49.008;12.106;2023-02-03T01:39:26;3.80;99.90
45906;DHT22;31619;49.008;12.106;2023-02-03T01:41:54;3.80;99.90
45906;DHT22;31619;49.008;12.106;2023-02-03T01:44:48;3.80;99.90
45906;DHT22;31619;49.008;12.106;2023-02-03T01:47:39;3.80;99.90
45906;DHT22;31619;49.008;12.106;2023-02-03T01:50:14;3.80;99.90
45906;DHT22;31619;49.008;12.106;2023-02-03T01:52:42;3.80;99.90
45906;DHT22;31619;49.008;12.106;2023-02-03T01:55:15;3.80;99.90
45906;DHT22;31619;49.008;12.106;2023-02-03T01:57:51;3.80;99.90
45906;DHT22;31619;49.008;12.106;2023-02-03T02:00:19;3.80;99.90
45906;DHT22;31619;49.008;12.106;2023-02-03T02:02:45;3.90;99.90
45906;DHT22;31619;49.008;12.106;2023-02-03T02:05:29;3.80;99.90
45906;DHT22;31619;49.008;12.106;2023-02-03T02:07:57;3.80;99.90
45906;DHT22;31619;49.008;12.106;2023-02-03T02:10:24;3.70;99.90
45906;DHT22;31619;49.008;12.106;2023-02-03T02:12:50;3.70;99.90
45906;DHT22;31619;49.008;12.106;2023-02-03T02:15:17;3.80;99.90
45906;DHT22;31619;49.008;12.106;2023-02-03T02:23:40;3.90;99.90
45906;DHT22;31619;49.008;12.106;2023-02-03T02:29:03;3.80;99.90
45906;DHT22;31619;49.008;12.106;2023-02-03T02:31:51;3.80;99.90
45906;DHT22;31619;49.008;12.106;2023-02-03T02:39:46;4.00;99.90
45906;DHT22;31619;49.008;12.106;2023-02-03T02:42:34;3.90;99.90
45906;DHT22;31619;49.008;12.106;2023-02-03T02:46:07;4.00;99.90
45906;DHT22;31619;49.008;12.106;2023-02-03T02:48:47;4.00;99.90
45906;DHT22;31619;49.008;12.106;2023-02-03T02:51:14;4.00;99.90
45906;DHT22;31619;49.008;12.106;2023-02-03T02:53:59;4.00;99.90
45906;DHT22;31619;49.008;12.106;2023-02-03T02:56:27;4.00;99.90
45906;DHT22;31619;49.008;12.106;2023-02-03T02:58:55;4.10;99.90
45906;DHT22;31619;49.008;12.106;2023-02-03T03:01:22;4.10;99.90
45906;DHT22;31619;49.008;12.106;2023-02-03T03:03:48;4.10;99.90
45906;DHT22;31619;49.008;12.106;2023-02-03T03:06:31;4.10;99.90
45906;DHT22;31619;49.008;12.106;2023-02-03T03:09:07;4.20;99.90
45906;DHT22;31619;49.008;12.106;2023-02-03T03:11:44;4.30;99.90
45906;DHT22;31619;49.008;12.106;2023-02-03T03:14:15;4.30;99.90
45906;DHT22;31619;49.008;12.106;2023-02-03T03:19:48;4.40;99.90
45906;DHT22;31619;49.008;12.106;2023-02-03T03:22:15;4.30;99.90
45906;DHT22;31619;49.008;12.106;2023-02-03T03:24:51;4.30;99.90
45906;DHT22;31619;49.008;12.106;2023-02-03T03:27:23;4.30;99.90
45906;DHT22;31619;49.008;12.106;2023-02-03T03:32:55;4.40;99.90
45906;DHT22;31619;49.008;12.106;2023-02-03T03:35:24;4.40;99.90
45906;DHT22;31619;49.008;12.106;2023-02-03T03:37:57;4.50;99.90
45906;DHT22;31619;49.008;12.106;2023-02-03T03:40:56;4.50;99.90
45906;DHT22;31619;49.008;12.106;2023-02-03T03:43:27;4.40;99.90
45906;DHT22;31619;49.008;12.106;2023-02-03T03:46:16;4.40;99.90
45906;DHT22;31619;49.008;12.106;2023-02-03T03:48:59;4.50;99.90
45906;DHT22;31619;49.008;12.106;2023-02-03T03:53:57;4.60;99.90
45906;DHT22;31619;49.008;12.106;2023-02-03T03:56:28;4.60;99.90
45906;DHT22;31619;49.008;12.106;2023-02-03T03:58:56;4.70;99.90
45906;DHT22;31619;49.008;12.106;2023-02-03T04:01:24;4.80;99.90
45906;DHT22;31619;49.008;12.106;2023-02-03T04:04:02;4.80;99.90
45906;DHT22;31619;49.008;12.106;2023-02-03T04:06:30;4.80;99.90
45906;DHT22;31619;49.008;12.106;2023-02-03T04:08:55;4.80;99.90
45906;DHT22;31619;49.008;12.106;2023-02-03T04:11:21;4.80;99.90
45906;DHT22;31619;49.008;12.106;2023-02-03T04:14:05;4.80;99.90
45906;DHT22;31619;49.008;12.106;2023-02-03T04:16:30;4.80;99.90
45906;DHT22;31619;49.008;12.106;2023-02-03T04:18:56;4.80;99.90
45906;DHT22;31619;49.008;12.106;2023-02-03T04:21:21;4.90;99.90
45906;DHT22;31619;49.008;12.106;2023-02-03T04:23:47;4.90;99.90
45906;DHT22;31619;49.008;12.106;2023-02-03T04:26:13;4.90;99.90
45906;DHT22;31619;49.008;12.106;2023-02-03T04:28:38;4.90;99.90
45906;DHT22;31619;49.008;12.106;2023-02-03T04:31:04;4.90;99.90
45906;DHT22;31619;49.008;12.106;2023-02-03T04:33:29;4.90;99.90
45906;DHT22;31619;49.008;12.106;2023-02-03T04:35:55;4.90;99.90
45906;DHT22;31619;49.008;12.106;2023-02-03T04:38:21;4.90;99.90
45906;DHT22;31619;49.008;12.106;2023-02-03T04:40:46;4.90;99.90
45906;DHT22;31619;49.008;12.106;2023-02-03T04:43:12;4.80;99.90
45906;DHT22;31619;49.008;12.106;2023-02-03T04:45:39;4.80;99.90
45906;DHT22;31619;49.008;12.106;2023-02-03T04:48:04;4.90;99.90
45906;DHT22;31619;49.008;12.106;2023-02-03T04:50:31;4.80;99.90
45906;DHT22;31619;49.008;12.106;2023-02-03T04:52:56;4.90;99.90
45906;DHT22;31619;49.008;12.106;2023-02-03T04:55:26;4.90;99.90
45906;DHT22;31619;49.008;12.106;2023-02-03T04:57:59;4.90;99.90
45906;DHT22;31619;49.008;12.106;2023-02-03T05:00:26;5.00;99.90
45906;DHT22;31619;49.008;12.106;2023-02-03T05:02:52;5.00;99.90
45906;DHT22;31619;49.008;12.106;2023-02-03T05:05:17;4.90;99.90
45906;DHT22;31619;49.008;12.106;2023-02-03T05:07:43;4.90;99.90
45906;DHT22;31619;49.008;12.106;2023-02-03T05:10:09;4.90;99.90
45906;DHT22;31619;49.008;12.106;2023-02-03T05:12:35;4.90;99.90
45906;DHT22;31619;49.008;12.106;2023-02-03T05:15:00;4.80;99.90
45906;DHT22;31619;49.008;12.106;2023-02-03T05:17:26;4.80;99.90
45906;DHT22;31619;49.008;12.106;2023-02-03T05:19:52;4.90;99.90
45906;DHT22;31619;49.008;12.106;2023-02-03T05:22:17;4.90;99.90
45906;DHT22;31619;49.008;12.106;2023-02-03T05:24:43;5.00;99.90
45906;DHT22;31619;49.008;12.106;2023-02-03T05:27:08;4.90;99.90
45906;DHT22;31619;49.008;12.106;2023-02-03T05:29:34;4.90;99.90
45906;DHT22;31619;49.008;12.106;2023-02-03T05:31:59;4.90;99.90
45906;DHT22;31619;49.008;12.106;2023-02-03T05:34:25;5.00;99.90
45906;DHT22;31619;49.008;12.106;2023-02-03T05:36:51;4.90;99.90
45906;DHT22;31619;49.008;12.106;2023-02-03T05:39:16;5.00;99.90
45906;DHT22;31619;49.008;12.106;2023-02-03T05:41:42;4.90;99.90
45906;DHT22;31619;49.008;12.106;2023-02-03T05:44:17;5.00;99.90
45906;DHT22;31619;49.008;12.106;2023-02-03T05:46:42;4.90;99.90
45906;DHT22;31619;49.008;12.106;2023-02-03T05:49:08;4.90;99.90
45906;DHT22;31619;49.008;12.106;2023-02-03T05:51:33;5.00;99.90
45906;DHT22;31619;49.008;12.106;2023-02-03T05:53:59;4.90;99.90
45906;DHT22;31619;49.008;12.106;2023-02-03T05:56:25;4.90;99.90
45906;DHT22;31619;49.008;12.106;2023-02-03T05:58:50;4.90;99.90
45906;DHT22;31619;49.008;12.106;2023-02-03T06:01:18;4.90;99.90
45906;DHT22;31619;49.008;12.106;2023-02-03T06:03:44;5.00;99.90
45906;DHT22;31619;49.008;12.106;2023-02-03T06:06:10;5.00;99.90
45906;DHT22;31619;49.008;12.106;2023-02-03T06:08:35;4.90;99.90
45906;DHT22;31619;49.008;12.106;2023-02-03T06:11:01;4.90;99.90
45906;DHT22;31619;49.008;12.106;2023-02-03T06:13:26;4.90;99.90
45906;DHT22;31619;49.008;12.106;2023-02-03T06:15:52;4.90;99.90
45906;DHT22;31619;49.008;12.106;2023-02-03T06:18:18;5.00;99.90
45906;DHT22;31619;49.008;12.106;2023-02-03T06:20:43;5.00;99.90
45906;DHT22;31619;49.008;12.106;2023-02-03T06:23:09;5.10;99.90
45906;DHT22;31619;49.008;12.106;2023-02-03T06:25:34;5.10;99.90
45906;DHT22;31619;49.008;12.106;2023-02-03T06:28:00;5.00;99.90
45906;DHT22;31619;49.008;12.106;2023-02-03T06:30:26;5.00;99.90
45906;DHT22;31619;49.008;12.106;2023-02-03T06:32:51;5.00;99.90
45906;DHT22;31619;49.008;12.106;2023-02-03T06:35:17;5.10;99.90
45906;DHT22;31619;49.008;12.106;2023-02-03T06:37:43;5.00;99.90
45906;DHT22;31619;49.008;12.106;2023-02-03T06:40:09;5.00;99.90
45906;DHT22;31619;49.008;12.106;2023-02-03T06:42:35;4.90;99.90
45906;DHT22;31619;49.008;12.106;2023-02-03T06:45:01;4.90;99.90
45906;DHT22;31619;49.008;12.106;2023-02-03T06:47:27;5.00;99.90
45906;DHT22;31619;49.008;12.106;2023-02-03T06:49:52;4.90;99.90
45906;DHT22;31619;49.008;12.106;2023-02-03T06:52:18;4.90;99.90
45906;DHT22;31619;49.008;12.106;2023-02-03T06:54:44;4.90;99.90
45906;DHT22;31619;49.008;12.106;2023-02-03T06:57:10;4.90;99.90
45906;DHT22;31619;49.008;12.106;2023-02-03T06:59:35;4.90;99.90
45906;DHT22;31619;49.008;12.106;2023-02-03T07:02:01;4.90;99.90
45906;DHT22;31619;49.008;12.106;2023-02-03T07:04:27;4.90;99.90
45906;DHT22;31619;49.008;12.106;2023-02-03T07:06:57;4.90;99.90
45906;DHT22;31619;49.008;12.106;2023-02-03T07:09:22;4.90;99.90
45906;DHT22;31619;49.008;12.106;2023-02-03T07:11:48;4.90;99.90
45906;DHT22;31619;49.008;12.106;2023-02-03T07:14:14;4.90;99.90
45906;DHT22;31619;49.008;12.106;2023-02-03T07:16:40;4.90;99.90
45906;DHT22;31619;49.008;12.106;2023-02-03T07:19:06;4.90;99.90
45906;DHT22;31619;49.008;12.106;2023-02-03T07:21:32;4.90;99.90
45906;DHT22;31619;49.008;12.106;2023-02-03T07:23:57;4.80;99.90
45906;DHT22;31619;49.008;12.106;2023-02-03T07:26:23;4.80;99.90
45906;DHT22;31619;49.008;12.106;2023-02-03T07:28:50;4.90;99.90
45906;DHT22;31619;49.008;12.106;2023-02-03T07:31:17;4.80;99.90
45906;DHT22;31619;49.008;12.106;2023-02-03T07:33:42;4.90;99.90
45906;DHT22;31619;49.008;12.106;2023-02-03T07:36:09;4.90;99.90
45906;DHT22;31619;49.008;12.106;2023-02-03T07:38:35;5.00;99.90
45906;DHT22;31619;49.008;12.106;2023-02-03T07:41:03;5.00;99.90
45906;DHT22;31619;49.008;12.106;2023-02-03T07:43:28;5.00;99.90
45906;DHT22;31619;49.008;12.106;2023-02-03T07:45:54;5.10;99.90
45906;DHT22;31619;49.008;12.106;2023-02-03T07:48:19;5.20;99.90
45906;DHT22;31619;49.008;12.106;2023-02-03T07:50:47;5.20;99.90
45906;DHT22;31619;49.008;12.106;2023-02-03T07:53:12;5.30;99.90
45906;DHT22;31619;49.008;12.106;2023-02-03T07:55:40;5.30;99.90
45906;DHT22;31619;49.008;12.106;2023-02-03T07:58:05;5.30;99.90
45906;DHT22;31619;49.008;12.106;2023-02-03T08:00:31;5.30;99.90
45906;DHT22;31619;49.008;12.106;2023-02-03T08:02:57;5.40;99.90
45906;DHT22;31619;49.008;12.106;2023-02-03T08:05:23;5.40;99.90
45906;DHT22;31619;49.008;12.106;2023-02-03T08:07:49;5.50;99.90
45906;DHT22;31619;49.008;12.106;2023-02-03T08:10:15;5.50;99.90
45906;DHT22;31619;49.008;12.106;2023-02-03T08:12:42;5.60;99.90
45906;DHT22;31619;49.008;12.106;2023-02-03T08:15:09;5.50;99.90
45906;DHT22;31619;49.008;12.106;2023-02-03T08:17:35;5.50;99.90
45906;DHT22;31619;49.008;12.106;2023-02-03T08:20:01;5.50;99.90
45906;DHT22;31619;49.008;12.106;2023-02-03T08:22:27;5.50;99.90
45906;DHT22;31619;49.008;12.106;2023-02-03T08:24:53;5.50;99.90
45906;DHT22;31619;49.008;12.106;2023-02-03T08:27:21;5.60;99.90
45906;DHT22;31619;49.008;12.106;2023-02-03T08:29:47;5.70;99.90
45906;DHT22;31619;49.008;12.106;2023-02-03T08:32:15;5.70;99.90
45906;DHT22;31619;49.008;12.106;2023-02-03T08:34:41;5.80;99.90
45906;DHT22;31619;49.008;12.106;2023-02-03T08:37:07;5.70;99.90
45906;DHT22;31619;49.008;12.106;2023-02-03T08:39:34;5.80;99.90
45906;DHT22;31619;49.008;12.106;2023-02-03T08:42:00;5.70;99.90
45906;DHT22;31619;49.008;12.106;2023-02-03T08:44:26;5.70;99.90
45906;DHT22;31619;49.008;12.106;2023-02-03T08:46:52;5.70;99.90
45906;DHT22;31619;49.008;12.106;2023-02-03T08:49:19;5.60;99.90
45906;DHT22;31619;49.008;12.106;2023-02-03T08:51:46;5.70;99.90
45906;DHT22;31619;49.008;12.106;2023-02-03T08:54:12;5.70;99.90
45906;DHT22;31619;49.008;12.106;2023-02-03T08:56:38;5.70;99.90
45906;DHT22;31619;49.008;12.106;2023-02-03T08:59:04;5.80;99.90
45906;DHT22;31619;49.008;12.106;2023-02-03T09:01:30;5.70;99.90
45906;DHT22;31619;49.008;12.106;2023-02-03T09:03:55;5.70;99.90
45906;DHT22;31619;49.008;12.106;2023-02-03T09:06:21;5.80;99.90
45906;DHT22;31619;49.008;12.106;2023-02-03T09:08:47;5.70;99.90
45906;DHT22;31619;49.008;12.106;2023-02-03T09:11:15;5.80;99.90
45906;DHT22;31619;49.008;12.106;2023-02-03T09:13:41;5.80;99.90
45906;DHT22;31619;49.008;12.106;2023-02-03T09:16:11;5.80;99.90
45906;DHT22;31619;49.008;12.106;2023-02-03T09:18:36;5.70;99.90
45906;DHT22;31619;49.008;12.106;2023-02-03T09:21:09;5.70;99.90
45906;DHT22;31619;49.008;12.106;2023-02-03T09:23:39;5.70;99.90
45906;DHT22;31619;49.008;12.106;2023-02-03T09:26:06;5.70;99.90
45906;DHT22;31619;49.008;12.106;2023-02-03T09:28:33;5.70;99.90
45906;DHT22;31619;49.008;12.106;2023-02-03T09:31:03;5.70;99.90
45906;DHT22;31619;49.008;12.106;2023-02-03T09:33:29;5.70;99.90
45906;DHT22;31619;49.008;12.106;2023-02-03T09:35:55;5.70;99.90
45906;DHT22;31619;49.008;12.106;2023-02-03T09:38:21;5.70;99.90
45906;DHT22;31619;49.008;12.106;2023-02-03T09:40:56;5.70;99.90
45906;DHT22;31619;49.008;12.106;2023-02-03T09:46:22;5.70;99.90
45906;DHT22;31619;49.008;12.106;2023-02-03T09:48:52;5.70;99.90
45906;DHT22;31619;49.008;12.106;2023-02-03T09:51:24;5.60;99.90
45906;DHT22;31619;49.008;12.106;2023-02-03T09:56:42;5.60;99.90
45906;DHT22;31619;49.008;12.106;2023-02-03T09:59:14;5.60;99.90
45906;DHT22;31619;49.008;12.106;2023-02-03T10:02:04;5.60;99.90
45906;DHT22;31619;49.008;12.106;2023-02-03T10:04:47;5.60;99.90
45906;DHT22;31619;49.008;12.106;2023-02-03T10:07:25;5.60;99.90
45906;DHT22;31619;49.008;12.106;2023-02-03T10:17:41;5.70;99.90
45906;DHT22;31619;49.008;12.106;2023-02-03T10:22:47;5.80;99.90
45906;DHT22;31619;49.008;12.106;2023-02-03T10:25:19;5.80;99.90
45906;DHT22;31619;49.008;12.106;2023-02-03T10:27:53;5.80;99.90
45906;DHT22;31619;49.008;12.106;2023-02-03T10:30:26;5.80;99.90
45906;DHT22;31619;49.008;12.106;2023-02-03T10:33:01;5.90;99.90
45906;DHT22;31619;49.008;12.106;2023-02-03T10:38:18;6.00;99.90
45906;DHT22;31619;49.008;12.106;2023-02-03T10:40:46;6.00;99.90
45906;DHT22;31619;49.008;12.106;2023-02-03T10:43:12;6.00;99.90
45906;DHT22;31619;49.008;12.106;2023-02-03T10:45:57;6.10;99.90
45906;DHT22;31619;49.008;12.106;2023-02-03T10:48:23;6.10;99.90
45906;DHT22;31619;49.008;12.106;2023-02-03T10:50:50;6.20;99.90
45906;DHT22;31619;49.008;12.106;2023-02-03T10:56:12;6.50;99.90
45906;DHT22;31619;49.008;12.106;2023-02-03T10:58:38;6.60;99.90
45906;DHT22;31619;49.008;12.106;2023-02-03T11:01:10;6.80;99.90
45906;DHT22;31619;49.008;12.106;2023-02-03T11:03:37;7.00;99.90
45906;DHT22;31619;49.008;12.106;2023-02-03T11:06:06;7.10;99.90
45906;DHT22;31619;49.008;12.106;2023-02-03T11:08:35;7.10;99.90
45906;DHT22;31619;49.008;12.106;2023-02-03T11:11:03;7.00;99.90
45906;DHT22;31619;49.008;12.106;2023-02-03T11:13:29;7.00;99.90
45906;DHT22;31619;49.008;12.106;2023-02-03T11:16:04;6.80;99.90
45906;DHT22;31619;49.008;12.106;2023-02-03T11:18:46;6.70;99.90
45906;DHT22;31619;49.008;12.106;2023-02-03T11:21:15;6.70;99.90
45906;DHT22;31619;49.008;12.106;2023-02-03T11:23:46;6.80;99.90
45906;DHT22;31619;49.008;12.106;2023-02-03T11:26:14;6.80;99.90
45906;DHT22;31619;49.008;12.106;2023-02-03T11:28:43;6.90;99.90
45906;DHT22;31619;49.008;12.106;2023-02-03T11:31:25;7.00;99.90
45906;DHT22;31619;49.008;12.106;2023-02-03T11:33:57;7.00;99.90
45906;DHT22;31619;49.008;12.106;2023-02-03T11:36:26;6.90;99.90
45906;DHT22;31619;49.008;12.106;2023-02-03T11:38:52;7.00;99.90
45906;DHT22;31619;49.008;12.106;2023-02-03T11:41:36;7.00;99.90
45906;DHT22;31619;49.008;12.106;2023-02-03T11:44:10;6.90;99.90
45906;DHT22;31619;49.008;12.106;2023-02-03T11:46:37;6.90;99.90
45906;DHT22;31619;49.008;12.106;2023-02-03T11:49:32;6.80;99.90
45906;DHT22;31619;49.008;12.106;2023-02-03T11:52:27;6.80;99.90
45906;DHT22;31619;49.008;12.106;2023-02-03T11:55:13;6.80;99.90
45906;DHT22;31619;49.008;12.106;2023-02-03T11:57:54;6.70;99.90
45906;DHT22;31619;49.008;12.106;2023-02-03T12:00:54;6.70;99.90
45906;DHT22;31619;49.008;12.106;2023-02-03T12:03:43;6.80;99.90
45906;DHT22;31619;49.008;12.106;2023-02-03T12:09:32;6.60;99.90
45906;DHT22;31619;49.008;12.106;2023-02-03T12:12:30;6.60;99.90
45906;DHT22;31619;49.008;12.106;2023-02-03T12:20:37;6.60;99.90
45906;DHT22;31619;49.008;12.106;2023-02-03T12:23:17;6.70;99.90
45906;DHT22;31619;49.008;12.106;2023-02-03T12:34:19;6.50;99.90
45906;DHT22;31619;49.008;12.106;2023-02-03T12:39:43;6.40;99.90
45906;DHT22;31619;49.008;12.106;2023-02-03T12:47:35;6.40;99.90
45906;DHT22;31619;49.008;12.106;2023-02-03T12:52:55;6.40;99.90
45906;DHT22;31619;49.008;12.106;2023-02-03T12:55:33;6.40;99.90
45906;DHT22;31619;49.008;12.106;2023-02-03T12:58:06;6.40;99.90
45906;DHT22;31619;49.008;12.106;2023-02-03T13:03:48;6.40;99.90
45906;DHT22;31619;49.008;12.106;2023-02-03T13:14:11;6.60;99.90
45906;DHT22;31619;49.008;12.106;2023-02-03T13:16:42;6.70;99.90
45906;DHT22;31619;49.008;12.106;2023-02-03T13:19:22;6.70;99.90
45906;DHT22;31619;49.008;12.106;2023-02-03T13:21:49;6.70;99.90
45906;DHT22;31619;49.008;12.106;2023-02-03T13:24:16;6.70;99.90
45906;DHT22;31619;49.008;12.106;2023-02-03T13:29:41;6.60;99.90
45906;DHT22;31619;49.008;12.106;2023-02-03T13:35:30;6.50;99.90
45906;DHT22;31619;49.008;12.106;2023-02-03T13:41:07;6.50;99.90
45906;DHT22;31619;49.008;12.106;2023-02-03T13:43:39;6.60;99.90
45906;DHT22;31619;49.008;12.106;2023-02-03T13:46:51;6.60;99.90
45906;DHT22;31619;49.008;12.106;2023-02-03T13:49:22;6.70;99.90
45906;DHT22;31619;49.008;12.106;2023-02-03T13:51:48;6.70;99.90
45906;DHT22;31619;49.008;12.106;2023-02-03T13:54:25;6.70;99.90
45906;DHT22;31619;49.008;12.106;2023-02-03T13:57:02;6.70;99.90
45906;DHT22;31619;49.008;12.106;2023-02-03T13:59:41;6.80;99.90
45906;DHT22;31619;49.008;12.106;2023-02-03T14:04:57;6.90;99.90
45906;DHT22;31619;49.008;12.106;2023-02-03T14:07:36;7.00;99.90
45906;DHT22;31619;49.008;12.106;2023-02-03T14:15:34;6.90;99.90
45906;DHT22;31619;49.008;12.106;2023-02-03T14:18:42;6.80;99.90
45906;DHT22;31619;49.008;12.106;2023-02-03T14:21:21;6.80;99.90
45906;DHT22;31619;49.008;12.106;2023-02-03T14:23:51;6.70;99.90
45906;DHT22;31619;49.008;12.106;2023-02-03T14:26:48;6.70;99.90
45906;DHT22;31619;49.008;12.106;2023-02-03T14:29:33;6.70;99.90
45906;DHT22;31619;49.008;12.106;2023-02-03T14:32:04;6.50;99.90
45906;DHT22;31619;49.008;12.106;2023-02-03T14:37:15;6.40;99.90
45906;DHT22;31619;49.008;12.106;2023-02-03T14:42:33;6.20;99.90
45906;DHT22;31619;49.008;12.106;2023-02-03T14:45:28;6.20;99.90
45906;DHT22;31619;49.008;12.106;2023-02-03T14:58:49;6.10;99.90
45906;DHT22;31619;49.008;12.106;2023-02-03T15:04:21;6.10;99.90
45906;DHT22;31619;49.008;12.106;2023-02-03T15:06:50;6.10;99.90
45906;DHT22;31619;49.008;12.106;2023-02-03T15:09:41;6.00;99.90
45906;DHT22;31619;49.008;12.106;2023-02-03T15:12:17;6.00;99.90
45906;DHT22;31619;49.008;12.106;2023-02-03T15:14:43;6.00;99.90
45906;DHT22;31619;49.008;12.106;2023-02-03T15:17:27;5.90;99.90
45906;DHT22;31619;49.008;12.106;2023-02-03T15:19:53;5.90;99.90
45906;DHT22;31619;49.008;12.106;2023-02-03T15:24:44;5.90;99.90
45906;DHT22;31619;49.008;12.106;2023-02-03T15:27:28;5.90;99.90
45906;DHT22;31619;49.008;12.106;2023-02-03T15:29:54;6.00;99.90
45906;DHT22;31619;49.008;12.106;2023-02-03T15:34:54;6.00;99.90
45906;DHT22;31619;49.008;12.106;2023-02-03T15:40:19;6.00;99.90
45906;DHT22;31619;49.008;12.106;2023-02-03T15:43:20;6.00;99.90
45906;DHT22;31619;49.008;12.106;2023-02-03T15:48:49;5.90;99.90
45906;DHT22;31619;49.008;12.106;2023-02-03T15:53:55;6.00;99.90
45906;DHT22;31619;49.008;12.106;2023-02-03T15:58:55;5.90;99.90
45906;DHT22;31619;49.008;12.106;2023-02-03T16:01:23;5.90;99.90
45906;DHT22;31619;49.008;12.106;2023-02-03T16:03:53;5.90;99.90
45906;DHT22;31619;49.008;12.106;2023-02-03T16:06:29;5.90;99.90
45906;DHT22;31619;49.008;12.106;2023-02-03T16:09:00;6.00;99.90
45906;DHT22;31619;49.008;12.106;2023-02-03T16:13:58;6.00;99.90
45906;DHT22;31619;49.008;12.106;2023-02-03T16:17:03;6.00;99.90
45906;DHT22;31619;49.008;12.106;2023-02-03T16:19:30;6.00;99.90
45906;DHT22;31619;49.008;12.106;2023-02-03T16:21:58;6.00;99.90
45906;DHT22;31619;49.008;12.106;2023-02-03T16:29:50;6.10;99.90
45906;DHT22;31619;49.008;12.106;2023-02-03T16:32:34;6.10;99.90
45906;DHT22;31619;49.008;12.106;2023-02-03T16:35:19;6.20;99.90
45906;DHT22;31619;49.008;12.106;2023-02-03T16:38:16;6.10;99.90
45906;DHT22;31619;49.008;12.106;2023-02-03T16:41:00;6.10;99.90
45906;DHT22;31619;49.008;12.106;2023-02-03T16:43:46;6.10;99.90
45906;DHT22;31619;49.008;12.106;2023-02-03T16:46:30;6.10;99.90
45906;DHT22;31619;49.008;12.106;2023-02-03T16:49:14;6.00;99.90
45906;DHT22;31619;49.008;12.106;2023-02-03T16:51:58;6.00;99.90
45906;DHT22;31619;49.008;12.106;2023-02-03T16:54:24;6.00;99.90
45906;DHT22;31619;49.008;12.106;2023-02-03T16:56:52;6.00;99.90
45906;DHT22;31619;49.008;12.106;2023-02-03T16:59:18;6.00;99.90
45906;DHT22;31619;49.008;12.106;2023-02-03T17:01:43;6.00;99.90
45906;DHT22;31619;49.008;12.106;2023-02-03T17:04:09;6.00;99.90
45906;DHT22;31619;49.008;12.106;2023-02-03T17:06:39;6.10;99.90
45906;DHT22;31619;49.008;12.106;2023-02-03T17:09:06;6.20;99.90
45906;DHT22;31619;49.008;12.106;2023-02-03T17:11:31;6.20;99.90
45906;DHT22;31619;49.008;12.106;2023-02-03T17:13:57;6.20;99.90
45906;DHT22;31619;49.008;12.106;2023-02-03T17:16:25;6.30;99.90
45906;DHT22;31619;49.008;12.106;2023-02-03T17:18:51;6.20;99.90
45906;DHT22;31619;49.008;12.106;2023-02-03T17:21:19;6.20;99.90
45906;DHT22;31619;49.008;12.106;2023-02-03T17:23:45;6.20;99.90
45906;DHT22;31619;49.008;12.106;2023-02-03T17:26:11;6.20;99.90
45906;DHT22;31619;49.008;12.106;2023-02-03T17:28:38;6.30;99.90
45906;DHT22;31619;49.008;12.106;2023-02-03T17:31:06;6.30;99.90
45906;DHT22;31619;49.008;12.106;2023-02-03T17:33:33;6.30;99.90
45906;DHT22;31619;49.008;12.106;2023-02-03T17:38:30;6.40;99.90
45906;DHT22;31619;49.008;12.106;2023-02-03T17:40:55;6.30;99.90
45906;DHT22;31619;49.008;12.106;2023-02-03T17:43:21;6.30;99.90
45906;DHT22;31619;49.008;12.106;2023-02-03T17:45:47;6.30;99.90
45906;DHT22;31619;49.008;12.106;2023-02-03T17:48:12;6.40;99.90
45906;DHT22;31619;49.008;12.106;2023-02-03T17:50:38;6.50;99.90
45906;DHT22;31619;49.008;12.106;2023-02-03T17:53:03;6.50;99.90
45906;DHT22;31619;49.008;12.106;2023-02-03T17:55:30;6.50;99.90
45906;DHT22;31619;49.008;12.106;2023-02-03T17:57:56;6.50;99.90
45906;DHT22;31619;49.008;12.106;2023-02-03T18:00:22;6.50;99.90
45906;DHT22;31619;49.008;12.106;2023-02-03T18:02:49;6.40;99.90
45906;DHT22;31619;49.008;12.106;2023-02-03T18:05:15;6.30;99.90
45906;DHT22;31619;49.008;12.106;2023-02-03T18:07:42;6.30;99.90
45906;DHT22;31619;49.008;12.106;2023-02-03T18:10:08;6.30;99.90
45906;DHT22;31619;49.008;12.106;2023-02-03T18:12:34;6.30;99.90
45906;DHT22;31619;49.008;12.106;2023-02-03T18:15:00;6.30;99.90
45906;DHT22;31619;49.008;12.106;2023-02-03T18:17:25;6.30;99.90